Terminal Aerodrome Forecast
Issued by NWS Wichita, KS

Home | Current Version | Previous Version | Text Only | Print | Product List | Glossary On
Versions: 1 2 3 4 5 6 7 8 9 10 11 12 13 14 15 16 17 18 19 20
234
FTUS43 KICT 211738
TAFICT
TAF
KICT 211738Z 2118/2218 19023G32KT P6SM VCSH SCT020 BKN035
     FM211930 22014G20KT P6SM VCTS BKN035CB
     FM212300 33019G27KT P6SM VCTS BKN045CB
     FM220100 35015G22KT P6SM SCT045 BKN100
     FM220500 35009KT P6SM BKN150=

USA.gov is the U.S. government's official web portal to all federal, state and local government web resources and services.